sensor_id;sensor_type;location;lat;lon;timestamp;P1;durP1;ratioP1;P2;durP2;ratioP2
49147;SDS011;41980;45.550;12.070;2022-08-01T00:05:18;2.42;;;1.40;;
49147;SDS011;41980;45.550;12.070;2022-08-01T00:11:20;1.92;;;1.17;;
49147;SDS011;41980;45.550;12.070;2022-08-01T00:17:25;2.42;;;1.10;;
49147;SDS011;41980;45.550;12.070;2022-08-01T00:23:27;1.90;;;1.17;;
49147;SDS011;41980;45.550;12.070;2022-08-01T00:29:29;2.83;;;1.27;;
49147;SDS011;41980;45.550;12.070;2022-08-01T00:35:31;3.15;;;1.48;;
49147;SDS011;41980;45.550;12.070;2022-08-01T00:41:33;3.55;;;1.85;;
49147;SDS011;41980;45.550;12.070;2022-08-01T00:47:35;2.42;;;1.60;;
49147;SDS011;41980;45.550;12.070;2022-08-01T00:53:37;3.65;;;2.10;;
49147;SDS011;41980;45.550;12.070;2022-08-01T00:59:40;4.35;;;2.03;;
49147;SDS011;41980;45.550;12.070;2022-08-01T01:17:58;3.78;;;1.85;;
49147;SDS011;41980;45.550;12.070;2022-08-01T01:30:12;2.42;;;1.90;;
49147;SDS011;41980;45.550;12.070;2022-08-01T01:36:16;2.55;;;2.10;;
49147;SDS011;41980;45.550;12.070;2022-08-01T01:42:21;3.97;;;2.78;;
49147;SDS011;41980;45.550;12.070;2022-08-01T01:48:25;2.20;;;1.65;;
49147;SDS011;41980;45.550;12.070;2022-08-01T01:54:31;4.97;;;2.50;;
49147;SDS011;41980;45.550;12.070;2022-08-01T02:00:35;2.63;;;1.83;;
49147;SDS011;41980;45.550;12.070;2022-08-01T02:06:39;3.50;;;1.73;;
49147;SDS011;41980;45.550;12.070;2022-08-01T02:12:41;3.95;;;2.40;;
49147;SDS011;41980;45.550;12.070;2022-08-01T02:18:47;3.13;;;2.45;;
49147;SDS011;41980;45.550;12.070;2022-08-01T02:24:52;2.42;;;1.70;;
49147;SDS011;41980;45.550;12.070;2022-08-01T02:30:59;4.00;;;2.15;;
49147;SDS011;41980;45.550;12.070;2022-08-01T02:37:02;2.80;;;2.00;;
49147;SDS011;41980;45.550;12.070;2022-08-01T02:43:06;2.53;;;1.95;;
49147;SDS011;41980;45.550;12.070;2022-08-01T02:49:10;2.58;;;1.67;;
49147;SDS011;41980;45.550;12.070;2022-08-01T02:55:15;2.67;;;1.45;;
49147;SDS011;41980;45.550;12.070;2022-08-01T03:01:18;3.13;;;2.20;;
49147;SDS011;41980;45.550;12.070;2022-08-01T03:07:21;3.38;;;2.22;;
49147;SDS011;41980;45.550;12.070;2022-08-01T03:13:25;3.78;;;2.50;;
49147;SDS011;41980;45.550;12.070;2022-08-01T03:19:28;4.30;;;2.92;;
49147;SDS011;41980;45.550;12.070;2022-08-01T03:25:33;3.03;;;2.22;;
49147;SDS011;41980;45.550;12.070;2022-08-01T03:31:39;2.45;;;1.50;;
49147;SDS011;41980;45.550;12.070;2022-08-01T03:37:45;2.63;;;2.00;;
49147;SDS011;41980;45.550;12.070;2022-08-01T03:43:50;2.58;;;2.00;;
49147;SDS011;41980;45.550;12.070;2022-08-01T03:49:57;4.03;;;2.20;;
49147;SDS011;41980;45.550;12.070;2022-08-01T03:56:02;2.58;;;1.70;;
49147;SDS011;41980;45.550;12.070;2022-08-01T04:02:06;3.25;;;2.38;;
49147;SDS011;41980;45.550;12.070;2022-08-01T04:08:09;3.90;;;1.77;;
49147;SDS011;41980;45.550;12.070;2022-08-01T04:14:11;4.15;;;2.20;;
49147;SDS011;41980;45.550;12.070;2022-08-01T04:20:13;2.80;;;1.60;;
49147;SDS011;41980;45.550;12.070;2022-08-01T04:26:14;2.83;;;2.15;;
49147;SDS011;41980;45.550;12.070;2022-08-01T04:32:20;2.30;;;1.40;;
49147;SDS011;41980;45.550;12.070;2022-08-01T04:38:23;2.05;;;1.40;;
49147;SDS011;41980;45.550;12.070;2022-08-01T04:44:28;4.55;;;1.67;;
49147;SDS011;41980;45.550;12.070;2022-08-01T04:50:34;2.35;;;1.50;;
49147;SDS011;41980;45.550;12.070;2022-08-01T04:56:37;2.92;;;1.92;;
49147;SDS011;41980;45.550;12.070;2022-08-01T05:02:39;2.40;;;1.60;;
49147;SDS011;41980;45.550;12.070;2022-08-01T05:08:41;2.20;;;1.50;;
49147;SDS011;41980;45.550;12.070;2022-08-01T05:14:44;2.05;;;1.40;;
49147;SDS011;41980;45.550;12.070;2022-08-01T05:20:47;2.45;;;1.42;;
49147;SDS011;41980;45.550;12.070;2022-08-01T05:26:49;4.07;;;3.08;;
49147;SDS011;41980;45.550;12.070;2022-08-01T05:32:51;2.15;;;1.42;;
49147;SDS011;41980;45.550;12.070;2022-08-01T05:38:53;4.07;;;1.88;;
49147;SDS011;41980;45.550;12.070;2022-08-01T05:44:55;2.67;;;1.88;;
49147;SDS011;41980;45.550;12.070;2022-08-01T05:50:57;2.15;;;1.60;;
49147;SDS011;41980;45.550;12.070;2022-08-01T05:56:59;2.58;;;1.58;;
49147;SDS011;41980;45.550;12.070;2022-08-01T06:03:02;1.90;;;1.27;;
49147;SDS011;41980;45.550;12.070;2022-08-01T06:09:04;2.55;;;1.70;;
49147;SDS011;41980;45.550;12.070;2022-08-01T06:15:06;2.97;;;1.65;;
49147;SDS011;41980;45.550;12.070;2022-08-01T06:21:09;3.33;;;2.17;;
49147;SDS011;41980;45.550;12.070;2022-08-01T06:27:11;3.50;;;1.30;;
49147;SDS011;41980;45.550;12.070;2022-08-01T06:33:12;2.67;;;1.20;;
49147;SDS011;41980;45.550;12.070;2022-08-01T06:39:14;2.25;;;1.25;;
49147;SDS011;41980;45.550;12.070;2022-08-01T06:45:16;1.83;;;1.00;;
49147;SDS011;41980;45.550;12.070;2022-08-01T06:51:19;3.47;;;1.00;;
49147;SDS011;41980;45.550;12.070;2022-08-01T06:57:22;1.92;;;1.00;;
49147;SDS011;41980;45.550;12.070;2022-08-01T07:03:23;2.15;;;1.33;;
49147;SDS011;41980;45.550;12.070;2022-08-01T07:09:26;4.90;;;1.83;;
49147;SDS011;41980;45.550;12.070;2022-08-01T07:15:28;2.08;;;0.98;;
49147;SDS011;41980;45.550;12.070;2022-08-01T07:21:30;1.70;;;0.70;;
49147;SDS011;41980;45.550;12.070;2022-08-01T07:27:31;1.50;;;0.70;;
49147;SDS011;41980;45.550;12.070;2022-08-01T07:33:34;3.85;;;0.82;;
49147;SDS011;41980;45.550;12.070;2022-08-01T07:39:36;4.57;;;1.15;;
49147;SDS011;41980;45.550;12.070;2022-08-01T07:45:37;3.13;;;0.80;;
49147;SDS011;41980;45.550;12.070;2022-08-01T07:51:42;2.03;;;0.90;;
49147;SDS011;41980;45.550;12.070;2022-08-01T07:57:44;2.85;;;1.20;;
49147;SDS011;41980;45.550;12.070;2022-08-01T08:03:46;1.77;;;0.90;;
49147;SDS011;41980;45.550;12.070;2022-08-01T08:09:48;2.45;;;1.17;;
49147;SDS011;41980;45.550;12.070;2022-08-01T08:15:50;2.15;;;1.08;;
49147;SDS011;41980;45.550;12.070;2022-08-01T08:21:52;1.20;;;0.70;;
49147;SDS011;41980;45.550;12.070;2022-08-01T08:27:54;1.98;;;0.80;;
49147;SDS011;41980;45.550;12.070;2022-08-01T08:33:56;1.45;;;0.60;;
49147;SDS011;41980;45.550;12.070;2022-08-01T08:39:58;1.38;;;0.60;;
49147;SDS011;41980;45.550;12.070;2022-08-01T08:46:00;2.38;;;0.60;;
49147;SDS011;41980;45.550;12.070;2022-08-01T08:52:03;1.63;;;0.70;;
49147;SDS011;41980;45.550;12.070;2022-08-01T08:58:06;1.50;;;0.70;;
49147;SDS011;41980;45.550;12.070;2022-08-01T09:04:08;1.30;;;0.68;;
49147;SDS011;41980;45.550;12.070;2022-08-01T09:10:11;1.83;;;0.80;;
49147;SDS011;41980;45.550;12.070;2022-08-01T09:16:15;1.63;;;0.80;;
49147;SDS011;41980;45.550;12.070;2022-08-01T09:22:20;1.42;;;0.60;;
49147;SDS011;41980;45.550;12.070;2022-08-01T09:34:29;2.38;;;0.73;;
49147;SDS011;41980;45.550;12.070;2022-08-01T09:52:53;1.30;;;0.60;;
49147;SDS011;41980;45.550;12.070;2022-08-01T09:58:59;1.58;;;0.90;;
49147;SDS011;41980;45.550;12.070;2022-08-01T10:05:01;1.90;;;1.17;;
49147;SDS011;41980;45.550;12.070;2022-08-01T10:11:06;1.88;;;0.82;;
49147;SDS011;41980;45.550;12.070;2022-08-01T10:17:11;1.90;;;0.80;;
49147;SDS011;41980;45.550;12.070;2022-08-01T10:23:16;2.60;;;0.90;;
49147;SDS011;41980;45.550;12.070;2022-08-01T10:29:19;2.05;;;0.90;;
49147;SDS011;41980;45.550;12.070;2022-08-01T10:35:21;2.42;;;1.08;;
49147;SDS011;41980;45.550;12.070;2022-08-01T10:41:24;1.30;;;0.80;;
49147;SDS011;41980;45.550;12.070;2022-08-01T10:47:27;1.50;;;0.90;;
49147;SDS011;41980;45.550;12.070;2022-08-01T10:59:50;1.75;;;0.80;;
49147;SDS011;41980;45.550;12.070;2022-08-01T11:05:54;1.05;;;0.50;;
49147;SDS011;41980;45.550;12.070;2022-08-01T11:11:59;1.75;;;0.85;;
49147;SDS011;41980;45.550;12.070;2022-08-01T11:30:26;1.38;;;0.80;;
49147;SDS011;41980;45.550;12.070;2022-08-01T11:36:28;1.75;;;0.80;;
49147;SDS011;41980;45.550;12.070;2022-08-01T11:42:31;2.50;;;0.75;;
49147;SDS011;41980;45.550;12.070;2022-08-01T11:48:34;1.30;;;0.60;;
49147;SDS011;41980;45.550;12.070;2022-08-01T11:54:37;3.00;;;0.70;;
49147;SDS011;41980;45.550;12.070;2022-08-01T12:00:41;1.98;;;0.82;;
49147;SDS011;41980;45.550;12.070;2022-08-01T12:06:52;1.52;;;0.73;;
49147;SDS011;41980;45.550;12.070;2022-08-01T12:12:56;1.10;;;0.50;;
49147;SDS011;41980;45.550;12.070;2022-08-01T12:19:02;1.67;;;0.75;;
49147;SDS011;41980;45.550;12.070;2022-08-01T12:31:09;1.95;;;0.90;;
49147;SDS011;41980;45.550;12.070;2022-08-01T12:37:11;1.58;;;0.60;;
49147;SDS011;41980;45.550;12.070;2022-08-01T12:49:19;2.53;;;0.90;;
49147;SDS011;41980;45.550;12.070;2022-08-01T12:55:23;1.65;;;0.90;;
49147;SDS011;41980;45.550;12.070;2022-08-01T13:01:27;2.28;;;0.75;;
49147;SDS011;41980;45.550;12.070;2022-08-01T13:13:40;2.37;;;0.77;;
49147;SDS011;41980;45.550;12.070;2022-08-01T13:19:44;1.15;;;0.50;;
49147;SDS011;41980;45.550;12.070;2022-08-01T13:31:57;1.30;;;0.70;;
49147;SDS011;41980;45.550;12.070;2022-08-01T13:38:00;1.52;;;0.70;;
49147;SDS011;41980;45.550;12.070;2022-08-01T13:44:01;1.15;;;0.63;;
49147;SDS011;41980;45.550;12.070;2022-08-01T13:50:04;2.75;;;0.70;;
49147;SDS011;41980;45.550;12.070;2022-08-01T13:56:07;1.80;;;0.60;;
49147;SDS011;41980;45.550;12.070;2022-08-01T14:02:09;1.50;;;0.55;;
49147;SDS011;41980;45.550;12.070;2022-08-01T14:08:11;1.58;;;0.70;;
49147;SDS011;41980;45.550;12.070;2022-08-01T14:14:13;1.50;;;0.70;;
49147;SDS011;41980;45.550;12.070;2022-08-01T14:20:15;1.20;;;0.60;;
49147;SDS011;41980;45.550;12.070;2022-08-01T14:26:20;3.08;;;0.80;;
49147;SDS011;41980;45.550;12.070;2022-08-01T14:32:23;1.40;;;0.70;;
49147;SDS011;41980;45.550;12.070;2022-08-01T14:38:26;2.05;;;0.80;;
49147;SDS011;41980;45.550;12.070;2022-08-01T14:44:28;1.77;;;0.85;;
49147;SDS011;41980;45.550;12.070;2022-08-01T14:50:31;2.78;;;0.63;;
49147;SDS011;41980;45.550;12.070;2022-08-01T14:56:33;1.70;;;0.75;;
49147;SDS011;41980;45.550;12.070;2022-08-01T15:02:35;1.40;;;0.70;;
49147;SDS011;41980;45.550;12.070;2022-08-01T15:08:37;1.45;;;0.75;;
49147;SDS011;41980;45.550;12.070;2022-08-01T15:14:40;1.40;;;0.63;;
49147;SDS011;41980;45.550;12.070;2022-08-01T15:20:46;3.15;;;0.80;;
49147;SDS011;41980;45.550;12.070;2022-08-01T15:26:48;3.53;;;0.80;;
49147;SDS011;41980;45.550;12.070;2022-08-01T15:32:50;1.88;;;0.60;;
49147;SDS011;41980;45.550;12.070;2022-08-01T15:38:52;1.50;;;0.60;;
49147;SDS011;41980;45.550;12.070;2022-08-01T15:44:54;3.25;;;0.65;;
49147;SDS011;41980;45.550;12.070;2022-08-01T15:50:57;1.73;;;0.75;;
49147;SDS011;41980;45.550;12.070;2022-08-01T15:56:59;1.83;;;0.68;;
49147;SDS011;41980;45.550;12.070;2022-08-01T16:03:01;1.88;;;0.70;;
49147;SDS011;41980;45.550;12.070;2022-08-01T16:09:03;2.08;;;0.60;;
49147;SDS011;41980;45.550;12.070;2022-08-01T16:15:07;2.55;;;0.63;;
49147;SDS011;41980;45.550;12.070;2022-08-01T16:21:09;1.70;;;0.60;;
49147;SDS011;41980;45.550;12.070;2022-08-01T16:27:12;1.05;;;0.40;;
49147;SDS011;41980;45.550;12.070;2022-08-01T16:33:14;2.10;;;0.60;;
49147;SDS011;41980;45.550;12.070;2022-08-01T16:39:16;1.90;;;0.70;;
49147;SDS011;41980;45.550;12.070;2022-08-01T16:45:18;1.55;;;0.50;;
49147;SDS011;41980;45.550;12.070;2022-08-01T16:51:22;0.90;;;0.40;;
49147;SDS011;41980;45.550;12.070;2022-08-01T16:57:24;1.83;;;0.73;;
49147;SDS011;41980;45.550;12.070;2022-08-01T17:03:26;1.70;;;0.70;;
49147;SDS011;41980;45.550;12.070;2022-08-01T17:09:28;1.00;;;0.50;;
49147;SDS011;41980;45.550;12.070;2022-08-01T17:15:30;1.10;;;0.60;;
49147;SDS011;41980;45.550;12.070;2022-08-01T17:21:34;1.20;;;0.43;;
49147;SDS011;41980;45.550;12.070;2022-08-01T17:27:37;1.88;;;0.80;;
49147;SDS011;41980;45.550;12.070;2022-08-01T17:33:39;1.30;;;0.60;;
49147;SDS011;41980;45.550;12.070;2022-08-01T17:39:41;2.15;;;0.60;;
49147;SDS011;41980;45.550;12.070;2022-08-01T17:45:43;2.38;;;1.27;;
49147;SDS011;41980;45.550;12.070;2022-08-01T17:51:46;1.80;;;0.73;;
49147;SDS011;41980;45.550;12.070;2022-08-01T17:57:48;2.92;;;0.60;;
49147;SDS011;41980;45.550;12.070;2022-08-01T18:03:50;1.00;;;0.50;;
49147;SDS011;41980;45.550;12.070;2022-08-01T18:09:53;1.10;;;0.40;;
49147;SDS011;41980;45.550;12.070;2022-08-01T18:15:55;1.20;;;0.50;;
49147;SDS011;41980;45.550;12.070;2022-08-01T18:21:57;1.10;;;0.57;;
49147;SDS011;41980;45.550;12.070;2022-08-01T18:27:59;2.22;;;0.50;;
49147;SDS011;41980;45.550;12.070;2022-08-01T18:34:01;1.38;;;0.55;;
49147;SDS011;41980;45.550;12.070;2022-08-01T18:40:03;1.42;;;0.60;;
49147;SDS011;41980;45.550;12.070;2022-08-01T18:46:06;1.35;;;0.45;;
49147;SDS011;41980;45.550;12.070;2022-08-01T18:52:08;0.90;;;0.47;;
49147;SDS011;41980;45.550;12.070;2022-08-01T18:58:11;1.40;;;0.60;;
49147;SDS011;41980;45.550;12.070;2022-08-01T19:04:12;2.10;;;0.50;;
49147;SDS011;41980;45.550;12.070;2022-08-01T19:10:15;1.48;;;0.70;;
49147;SDS011;41980;45.550;12.070;2022-08-01T19:16:17;1.00;;;0.50;;
49147;SDS011;41980;45.550;12.070;2022-08-01T19:22:19;2.45;;;0.63;;
49147;SDS011;41980;45.550;12.070;2022-08-01T19:28:23;2.38;;;1.05;;
49147;SDS011;41980;45.550;12.070;2022-08-01T19:34:26;5.85;;;1.20;;
49147;SDS011;41980;45.550;12.070;2022-08-01T19:40:29;2.67;;;1.17;;
49147;SDS011;41980;45.550;12.070;2022-08-01T19:46:32;2.35;;;0.80;;
49147;SDS011;41980;45.550;12.070;2022-08-01T19:52:34;4.22;;;0.90;;
49147;SDS011;41980;45.550;12.070;2022-08-01T19:58:40;3.65;;;1.92;;
49147;SDS011;41980;45.550;12.070;2022-08-01T20:04:43;2.17;;;1.20;;
49147;SDS011;41980;45.550;12.070;2022-08-01T20:10:46;2.47;;;1.00;;
49147;SDS011;41980;45.550;12.070;2022-08-01T20:16:49;2.30;;;1.10;;
49147;SDS011;41980;45.550;12.070;2022-08-01T20:22:54;3.70;;;2.33;;
49147;SDS011;41980;45.550;12.070;2022-08-01T20:28:57;2.65;;;1.30;;
49147;SDS011;41980;45.550;12.070;2022-08-01T20:35:03;1.77;;;1.10;;
49147;SDS011;41980;45.550;12.070;2022-08-01T20:41:06;1.75;;;0.90;;
49147;SDS011;41980;45.550;12.070;2022-08-01T20:47:09;1.90;;;1.10;;
49147;SDS011;41980;45.550;12.070;2022-08-01T20:53:11;3.42;;;1.13;;
49147;SDS011;41980;45.550;12.070;2022-08-01T21:11:36;3.60;;;1.40;;
49147;SDS011;41980;45.550;12.070;2022-08-01T21:29:50;2.03;;;1.20;;
49147;SDS011;41980;45.550;12.070;2022-08-01T21:35:56;2.33;;;1.23;;
49147;SDS011;41980;45.550;12.070;2022-08-01T21:41:59;3.55;;;1.00;;
49147;SDS011;41980;45.550;12.070;2022-08-01T21:48:01;1.75;;;0.95;;
49147;SDS011;41980;45.550;12.070;2022-08-01T22:00:15;1.70;;;0.80;;
49147;SDS011;41980;45.550;12.070;2022-08-01T22:06:23;5.80;;;3.05;;
49147;SDS011;41980;45.550;12.070;2022-08-01T22:12:26;1.83;;;1.10;;
49147;SDS011;41980;45.550;12.070;2022-08-01T22:18:29;3.08;;;1.10;;
49147;SDS011;41980;45.550;12.070;2022-08-01T22:24:34;1.95;;;1.00;;
49147;SDS011;41980;45.550;12.070;2022-08-01T22:30:39;2.10;;;1.10;;
49147;SDS011;41980;45.550;12.070;2022-08-01T22:36:41;2.40;;;1.10;;
49147;SDS011;41980;45.550;12.070;2022-08-01T22:48:51;2.03;;;1.00;;
49147;SDS011;41980;45.550;12.070;2022-08-01T22:55:03;2.33;;;1.17;;
49147;SDS011;41980;45.550;12.070;2022-08-01T23:01:08;1.67;;;1.00;;
49147;SDS011;41980;45.550;12.070;2022-08-01T23:07:17;2.58;;;0.90;;
49147;SDS011;41980;45.550;12.070;2022-08-01T23:13:21;2.83;;;1.10;;
49147;SDS011;41980;45.550;12.070;2022-08-01T23:19:23;1.92;;;1.10;;
49147;SDS011;41980;45.550;12.070;2022-08-01T23:25:27;2.83;;;1.40;;
49147;SDS011;41980;45.550;12.070;2022-08-01T23:31:32;3.70;;;1.40;;
49147;SDS011;41980;45.550;12.070;2022-08-01T23:37:36;3.45;;;1.20;;
49147;SDS011;41980;45.550;12.070;2022-08-01T23:43:38;2.83;;;1.40;;
49147;SDS011;41980;45.550;12.070;2022-08-01T23:49:41;2.10;;;1.20;;
49147;SDS011;41980;45.550;12.070;2022-08-01T23:55:43;1.95;;;1.00;;
